sensor_id;sensor_type;location;lat;lon;timestamp;pressure;altitude;pressure_sealevel;temperature;humidity
50166;BME280;36071;48.140;11.516;2023-03-03T00:03:29;95570.0;;;2.5;73.1
50166;BME280;36071;48.140;11.516;2023-03-03T00:08:29;95580.0;;;2.4;73.4
50166;BME280;36071;48.140;11.516;2023-03-03T00:13:29;95570.0;;;2.4;72.8
50166;BME280;36071;48.140;11.516;2023-03-03T00:18:29;95570.0;;;2.4;73.3
50166;BME280;36071;48.140;11.516;2023-03-03T00:23:29;95560.0;;;2.4;73.8
50166;BME280;36071;48.140;11.516;2023-03-03T00:28:29;95560.0;;;2.2;73.5
50166;BME280;36071;48.140;11.516;2023-03-03T00:33:30;95570.0;;;2.3;74.0
50166;BME280;36071;48.140;11.516;2023-03-03T00:38:29;95570.0;;;2.3;74.1
50166;BME280;36071;48.140;11.516;2023-03-03T00:43:32;95570.0;;;2.2;74.7
50166;BME280;36071;48.140;11.516;2023-03-03T00:48:30;95580.0;;;2.1;74.7
50166;BME280;36071;48.140;11.516;2023-03-03T00:53:29;95580.0;;;2.1;74.8
50166;BME280;36071;48.140;11.516;2023-03-03T00:58:29;95570.0;;;2.1;74.8
50166;BME280;36071;48.140;11.516;2023-03-03T01:03:29;95580.0;;;2.1;74.8
50166;BME280;36071;48.140;11.516;2023-03-03T01:08:29;95590.0;;;2.1;75.3
50166;BME280;36071;48.140;11.516;2023-03-03T01:13:29;95590.0;;;2.0;76.4
50166;BME280;36071;48.140;11.516;2023-03-03T01:18:29;95580.0;;;1.9;76.4
50166;BME280;36071;48.140;11.516;2023-03-03T01:23:29;95570.0;;;1.9;76.5
50166;BME280;36071;48.140;11.516;2023-03-03T01:28:29;95570.0;;;1.9;76.3
50166;BME280;36071;48.140;11.516;2023-03-03T01:33:29;95580.0;;;1.9;77.0
50166;BME280;36071;48.140;11.516;2023-03-03T01:38:29;95570.0;;;1.8;77.0
50166;BME280;36071;48.140;11.516;2023-03-03T01:43:29;95570.0;;;1.8;77.6
50166;BME280;36071;48.140;11.516;2023-03-03T01:48:29;95570.0;;;1.7;79.0
50166;BME280;36071;48.140;11.516;2023-03-03T01:53:30;95570.0;;;1.9;77.8
50166;BME280;36071;48.140;11.516;2023-03-03T01:58:30;95560.0;;;2.0;77.3
50166;BME280;36071;48.140;11.516;2023-03-03T02:03:29;95540.0;;;2.0;77.2
50166;BME280;36071;48.140;11.516;2023-03-03T02:08:30;95540.0;;;2.0;76.7
50166;BME280;36071;48.140;11.516;2023-03-03T02:13:29;95550.0;;;2.0;77.8
50166;BME280;36071;48.140;11.516;2023-03-03T02:18:29;95550.0;;;2.0;77.6
50166;BME280;36071;48.140;11.516;2023-03-03T02:23:29;95540.0;;;2.0;76.8
50166;BME280;36071;48.140;11.516;2023-03-03T02:28:30;95480.0;;;1.6;77.3
50166;BME280;36071;48.140;11.516;2023-03-03T02:33:29;95550.0;;;2.0;77.5
50166;BME280;36071;48.140;11.516;2023-03-03T02:38:29;95550.0;;;2.0;76.5
50166;BME280;36071;48.140;11.516;2023-03-03T02:43:30;95560.0;;;2.0;77.5
50166;BME280;36071;48.140;11.516;2023-03-03T02:48:29;95550.0;;;2.1;76.8
50166;BME280;36071;48.140;11.516;2023-03-03T02:53:29;95550.0;;;1.9;78.6
50166;BME280;36071;48.140;11.516;2023-03-03T02:58:29;95550.0;;;1.8;78.5
50166;BME280;36071;48.140;11.516;2023-03-03T03:03:29;95550.0;;;1.9;79.1
50166;BME280;36071;48.140;11.516;2023-03-03T03:13:29;95540.0;;;1.9;79.5
50166;BME280;36071;48.140;11.516;2023-03-03T03:18:29;95540.0;;;2.0;78.1
50166;BME280;36071;48.140;11.516;2023-03-03T03:23:29;95550.0;;;1.9;80.3
50166;BME280;36071;48.140;11.516;2023-03-03T03:28:29;95560.0;;;1.8;79.7
50166;BME280;36071;48.140;11.516;2023-03-03T03:33:29;95560.0;;;1.9;80.3
50166;BME280;36071;48.140;11.516;2023-03-03T03:38:29;95560.0;;;2.0;80.3
50166;BME280;36071;48.140;11.516;2023-03-03T03:43:29;95560.0;;;1.9;80.7
50166;BME280;36071;48.140;11.516;2023-03-03T03:48:29;95560.0;;;1.9;80.2
50166;BME280;36071;48.140;11.516;2023-03-03T03:53:29;95560.0;;;1.9;80.8
50166;BME280;36071;48.140;11.516;2023-03-03T03:58:29;95560.0;;;2.0;80.8
50166;BME280;36071;48.140;11.516;2023-03-03T04:03:29;95560.0;;;1.9;82.1
50166;BME280;36071;48.140;11.516;2023-03-03T04:08:29;95560.0;;;2.0;81.0
50166;BME280;36071;48.140;11.516;2023-03-03T04:13:29;95550.0;;;2.0;80.9
50166;BME280;36071;48.140;11.516;2023-03-03T04:18:29;95550.0;;;1.9;81.4
50166;BME280;36071;48.140;11.516;2023-03-03T04:23:29;95570.0;;;2.1;81.3
50166;BME280;36071;48.140;11.516;2023-03-03T04:28:29;95570.0;;;2.0;82.2
50166;BME280;36071;48.140;11.516;2023-03-03T04:33:29;95560.0;;;2.1;81.6
50166;BME280;36071;48.140;11.516;2023-03-03T04:38:29;95560.0;;;2.0;81.9
50166;BME280;36071;48.140;11.516;2023-03-03T04:43:29;95570.0;;;1.9;82.5
50166;BME280;36071;48.140;11.516;2023-03-03T04:48:29;95560.0;;;1.9;82.0
50166;BME280;36071;48.140;11.516;2023-03-03T04:53:29;95570.0;;;2.0;81.2
50166;BME280;36071;48.140;11.516;2023-03-03T04:58:29;95560.0;;;1.9;81.9
50166;BME280;36071;48.140;11.516;2023-03-03T05:03:29;95570.0;;;2.0;81.8
50166;BME280;36071;48.140;11.516;2023-03-03T05:08:29;95560.0;;;2.0;81.3
50166;BME280;36071;48.140;11.516;2023-03-03T05:13:29;95560.0;;;2.0;82.0
50166;BME280;36071;48.140;11.516;2023-03-03T05:18:29;95570.0;;;2.0;81.5
50166;BME280;36071;48.140;11.516;2023-03-03T05:23:29;95560.0;;;2.1;80.8
50166;BME280;36071;48.140;11.516;2023-03-03T05:28:29;95560.0;;;2.1;81.5
50166;BME280;36071;48.140;11.516;2023-03-03T05:33:29;95560.0;;;2.1;81.2
50166;BME280;36071;48.140;11.516;2023-03-03T05:38:29;95590.0;;;2.2;80.4
50166;BME280;36071;48.140;11.516;2023-03-03T05:43:29;95570.0;;;2.2;80.3
50166;BME280;36071;48.140;11.516;2023-03-03T05:48:29;95590.0;;;2.2;80.8
50166;BME280;36071;48.140;11.516;2023-03-03T05:53:29;95580.0;;;2.2;81.0
50166;BME280;36071;48.140;11.516;2023-03-03T05:58:29;95590.0;;;2.1;80.8
50166;BME280;36071;48.140;11.516;2023-03-03T06:03:29;95590.0;;;2.1;81.2
50166;BME280;36071;48.140;11.516;2023-03-03T06:08:29;95590.0;;;2.1;81.4
50166;BME280;36071;48.140;11.516;2023-03-03T06:13:29;95610.0;;;2.2;81.1
50166;BME280;36071;48.140;11.516;2023-03-03T06:18:29;95610.0;;;2.3;81.0
50166;BME280;36071;48.140;11.516;2023-03-03T06:23:29;95610.0;;;2.3;80.5
50166;BME280;36071;48.140;11.516;2023-03-03T06:28:29;95620.0;;;2.3;80.8
50166;BME280;36071;48.140;11.516;2023-03-03T06:33:29;95620.0;;;2.2;81.1
50166;BME280;36071;48.140;11.516;2023-03-03T06:38:29;95620.0;;;2.2;80.9
50166;BME280;36071;48.140;11.516;2023-03-03T06:43:29;95620.0;;;2.2;81.7
50166;BME280;36071;48.140;11.516;2023-03-03T06:48:31;95630.0;;;2.3;81.6
50166;BME280;36071;48.140;11.516;2023-03-03T06:53:30;95630.0;;;2.3;80.7
50166;BME280;36071;48.140;11.516;2023-03-03T06:58:29;95630.0;;;2.3;81.0
50166;BME280;36071;48.140;11.516;2023-03-03T07:03:31;95640.0;;;2.3;81.2
50166;BME280;36071;48.140;11.516;2023-03-03T07:08:30;95640.0;;;2.3;80.9
50166;BME280;36071;48.140;11.516;2023-03-03T07:13:30;95640.0;;;2.4;80.4
50166;BME280;36071;48.140;11.516;2023-03-03T07:18:32;95650.0;;;2.5;80.7
50166;BME280;36071;48.140;11.516;2023-03-03T07:23:33;95660.0;;;2.5;80.6
50166;BME280;36071;48.140;11.516;2023-03-03T07:28:29;95660.0;;;2.5;79.7
50166;BME280;36071;48.140;11.516;2023-03-03T07:33:30;95660.0;;;2.5;79.3
50166;BME280;36071;48.140;11.516;2023-03-03T07:38:30;95670.0;;;2.6;79.2
50166;BME280;36071;48.140;11.516;2023-03-03T07:43:30;95680.0;;;2.6;79.0
50166;BME280;36071;48.140;11.516;2023-03-03T07:48:30;95680.0;;;2.5;79.6
50166;BME280;36071;48.140;11.516;2023-03-03T07:53:29;95690.0;;;2.7;78.1
50166;BME280;36071;48.140;11.516;2023-03-03T07:58:31;95680.0;;;2.7;78.5
50166;BME280;36071;48.140;11.516;2023-03-03T08:03:29;95680.0;;;2.7;78.7
50166;BME280;36071;48.140;11.516;2023-03-03T08:08:30;95680.0;;;2.7;78.8
50166;BME280;36071;48.140;11.516;2023-03-03T08:13:34;95690.0;;;2.8;77.6
50166;BME280;36071;48.140;11.516;2023-03-03T08:18:31;95690.0;;;2.7;77.8
50166;BME280;36071;48.140;11.516;2023-03-03T08:23:29;95680.0;;;2.8;77.5
50166;BME280;36071;48.140;11.516;2023-03-03T08:28:29;95670.0;;;2.8;77.9
50166;BME280;36071;48.140;11.516;2023-03-03T08:33:31;95670.0;;;3.2;76.3
50166;BME280;36071;48.140;11.516;2023-03-03T08:38:29;95680.0;;;3.1;76.8
50166;BME280;36071;48.140;11.516;2023-03-03T08:43:29;95690.0;;;3.3;75.9
50166;BME280;36071;48.140;11.516;2023-03-03T08:48:29;95690.0;;;3.3;76.1
50166;BME280;36071;48.140;11.516;2023-03-03T08:53:29;95700.0;;;3.5;76.5
50166;BME280;36071;48.140;11.516;2023-03-03T08:58:29;95700.0;;;3.7;74.4
50166;BME280;36071;48.140;11.516;2023-03-03T09:03:29;95700.0;;;3.7;73.5
50166;BME280;36071;48.140;11.516;2023-03-03T09:08:29;95710.0;;;3.8;73.3
50166;BME280;36071;48.140;11.516;2023-03-03T09:13:29;95700.0;;;3.7;73.4
50166;BME280;36071;48.140;11.516;2023-03-03T09:18:30;95710.0;;;3.9;73.2
50166;BME280;36071;48.140;11.516;2023-03-03T09:23:30;95700.0;;;4.0;72.6
50166;BME280;36071;48.140;11.516;2023-03-03T09:28:29;95700.0;;;4.1;72.4
50166;BME280;36071;48.140;11.516;2023-03-03T09:33:30;95720.0;;;4.3;71.2
50166;BME280;36071;48.140;11.516;2023-03-03T09:38:29;95730.0;;;4.3;71.5
50166;BME280;36071;48.140;11.516;2023-03-03T09:43:30;95720.0;;;4.2;71.3
50166;BME280;36071;48.140;11.516;2023-03-03T09:48:36;95730.0;;;4.2;71.3
50166;BME280;36071;48.140;11.516;2023-03-03T09:53:34;95730.0;;;4.4;71.5
50166;BME280;36071;48.140;11.516;2023-03-03T09:58:33;95730.0;;;4.4;71.1
50166;BME280;36071;48.140;11.516;2023-03-03T10:03:36;95740.0;;;4.5;71.3
50166;BME280;36071;48.140;11.516;2023-03-03T10:08:36;95740.0;;;4.7;70.1
50166;BME280;36071;48.140;11.516;2023-03-03T10:13:32;95740.0;;;4.8;71.2
50166;BME280;36071;48.140;11.516;2023-03-03T10:18:29;95740.0;;;4.8;70.9
50166;BME280;36071;48.140;11.516;2023-03-03T10:23:37;95750.0;;;4.8;69.4
50166;BME280;36071;48.140;11.516;2023-03-03T10:28:34;95750.0;;;4.8;69.1
50166;BME280;36071;48.140;11.516;2023-03-03T10:33:30;95760.0;;;4.8;68.9
50166;BME280;36071;48.140;11.516;2023-03-03T10:38:31;95760.0;;;4.9;68.4
50166;BME280;36071;48.140;11.516;2023-03-03T10:43:32;95760.0;;;4.8;68.4
50166;BME280;36071;48.140;11.516;2023-03-03T10:48:49;95750.0;;;4.9;68.0
50166;BME280;36071;48.140;11.516;2023-03-03T10:53:30;95680.0;;;4.5;68.3
50166;BME280;36071;48.140;11.516;2023-03-03T10:58:33;95740.0;;;5.1;67.9
50166;BME280;36071;48.140;11.516;2023-03-03T11:03:33;95740.0;;;5.3;66.5
50166;BME280;36071;48.140;11.516;2023-03-03T11:08:31;95750.0;;;5.2;67.4
50166;BME280;36071;48.140;11.516;2023-03-03T11:13:31;95750.0;;;5.1;68.0
50166;BME280;36071;48.140;11.516;2023-03-03T11:18:32;95760.0;;;5.3;67.2
50166;BME280;36071;48.140;11.516;2023-03-03T11:23:36;95760.0;;;5.3;67.4
50166;BME280;36071;48.140;11.516;2023-03-03T11:28:35;95760.0;;;5.2;67.7
50166;BME280;36071;48.140;11.516;2023-03-03T11:33:31;95760.0;;;5.4;67.3
50166;BME280;36071;48.140;11.516;2023-03-03T11:38:32;95750.0;;;5.3;67.2
50166;BME280;36071;48.140;11.516;2023-03-03T11:43:29;95750.0;;;5.5;66.6
50166;BME280;36071;48.140;11.516;2023-03-03T11:48:31;95730.0;;;5.6;66.2
50166;BME280;36071;48.140;11.516;2023-03-03T11:53:33;95730.0;;;5.8;66.8
50166;BME280;36071;48.140;11.516;2023-03-03T11:58:30;95730.0;;;6.0;64.2
50166;BME280;36071;48.140;11.516;2023-03-03T12:03:29;95730.0;;;6.2;63.9
50166;BME280;36071;48.140;11.516;2023-03-03T12:08:32;95720.0;;;6.2;63.7
50166;BME280;36071;48.140;11.516;2023-03-03T12:13:32;95720.0;;;6.3;63.8
50166;BME280;36071;48.140;11.516;2023-03-03T12:18:33;95720.0;;;6.4;64.5
50166;BME280;36071;48.140;11.516;2023-03-03T12:23:35;95710.0;;;6.6;63.1
50166;BME280;36071;48.140;11.516;2023-03-03T12:28:30;95710.0;;;6.6;62.4
50166;BME280;36071;48.140;11.516;2023-03-03T12:33:32;95710.0;;;6.4;62.6
50166;BME280;36071;48.140;11.516;2023-03-03T12:38:32;95710.0;;;6.6;62.2
50166;BME280;36071;48.140;11.516;2023-03-03T12:43:33;95720.0;;;6.6;61.7
50166;BME280;36071;48.140;11.516;2023-03-03T12:48:32;95720.0;;;6.4;62.2
50166;BME280;36071;48.140;11.516;2023-03-03T12:53:33;95710.0;;;6.5;61.7
50166;BME280;36071;48.140;11.516;2023-03-03T12:58:33;95710.0;;;6.5;61.5
50166;BME280;36071;48.140;11.516;2023-03-03T13:03:33;95710.0;;;6.6;62.1
50166;BME280;36071;48.140;11.516;2023-03-03T13:08:32;95710.0;;;6.8;61.1
50166;BME280;36071;48.140;11.516;2023-03-03T13:13:30;95710.0;;;6.9;61.2
50166;BME280;36071;48.140;11.516;2023-03-03T13:18:31;95650.0;;;6.6;60.8
50166;BME280;36071;48.140;11.516;2023-03-03T13:23:32;95710.0;;;7.0;62.0
50166;BME280;36071;48.140;11.516;2023-03-03T13:28:30;95690.0;;;7.1;61.4
50166;BME280;36071;48.140;11.516;2023-03-03T13:33:29;95690.0;;;7.1;60.8
50166;BME280;36071;48.140;11.516;2023-03-03T13:38:30;95690.0;;;7.3;63.5
50166;BME280;36071;48.140;11.516;2023-03-03T13:43:29;95690.0;;;7.2;60.4
50166;BME280;36071;48.140;11.516;2023-03-03T13:48:34;95690.0;;;7.3;59.7
50166;BME280;36071;48.140;11.516;2023-03-03T13:53:31;95690.0;;;7.2;60.2
50166;BME280;36071;48.140;11.516;2023-03-03T13:58:30;95680.0;;;7.7;59.4
50166;BME280;36071;48.140;11.516;2023-03-03T14:03:39;95670.0;;;8.4;56.4
50166;BME280;36071;48.140;11.516;2023-03-03T14:08:35;95670.0;;;8.7;55.8
50166;BME280;36071;48.140;11.516;2023-03-03T14:13:30;95660.0;;;8.9;54.4
50166;BME280;36071;48.140;11.516;2023-03-03T14:18:30;95660.0;;;8.8;54.1
50166;BME280;36071;48.140;11.516;2023-03-03T14:23:30;95660.0;;;9.0;53.0
50166;BME280;36071;48.140;11.516;2023-03-03T14:28:36;95650.0;;;9.1;52.2
50166;BME280;36071;48.140;11.516;2023-03-03T14:33:29;95660.0;;;9.2;52.5
50166;BME280;36071;48.140;11.516;2023-03-03T14:38:37;95650.0;;;9.4;52.2
50166;BME280;36071;48.140;11.516;2023-03-03T14:43:32;95650.0;;;9.4;52.1
50166;BME280;36071;48.140;11.516;2023-03-03T14:48:29;95650.0;;;9.3;53.2
50166;BME280;36071;48.140;11.516;2023-03-03T14:53:30;95650.0;;;9.4;52.8
50166;BME280;36071;48.140;11.516;2023-03-03T14:58:39;95650.0;;;9.7;51.8
50166;BME280;36071;48.140;11.516;2023-03-03T15:03:29;95650.0;;;9.5;51.5
50166;BME280;36071;48.140;11.516;2023-03-03T15:08:31;95660.0;;;9.7;51.7
50166;BME280;36071;48.140;11.516;2023-03-03T15:13:32;95650.0;;;9.6;51.0
50166;BME280;36071;48.140;11.516;2023-03-03T15:18:29;95650.0;;;9.9;51.3
50166;BME280;36071;48.140;11.516;2023-03-03T15:23:32;95650.0;;;9.6;51.6
50166;BME280;36071;48.140;11.516;2023-03-03T15:28:31;95660.0;;;9.8;51.1
50166;BME280;36071;48.140;11.516;2023-03-03T15:33:31;95660.0;;;9.7;51.6
50166;BME280;36071;48.140;11.516;2023-03-03T15:38:32;95670.0;;;9.8;50.9
50166;BME280;36071;48.140;11.516;2023-03-03T15:43:31;95660.0;;;9.8;50.7
50166;BME280;36071;48.140;11.516;2023-03-03T15:48:32;95660.0;;;9.7;50.8
50166;BME280;36071;48.140;11.516;2023-03-03T15:53:34;95660.0;;;9.7;51.2
50166;BME280;36071;48.140;11.516;2023-03-03T15:58:35;95660.0;;;9.7;51.6
50166;BME280;36071;48.140;11.516;2023-03-03T16:03:30;95660.0;;;9.6;51.6
50166;BME280;36071;48.140;11.516;2023-03-03T16:08:29;95650.0;;;9.4;52.0
50166;BME280;36071;48.140;11.516;2023-03-03T16:13:49;95660.0;;;9.2;52.4
50166;BME280;36071;48.140;11.516;2023-03-03T16:18:32;95660.0;;;9.2;52.5
50166;BME280;36071;48.140;11.516;2023-03-03T16:23:30;95670.0;;;9.2;53.0
50166;BME280;36071;48.140;11.516;2023-03-03T16:28:31;95670.0;;;9.0;53.6
50166;BME280;36071;48.140;11.516;2023-03-03T16:33:31;95680.0;;;8.9;54.0
50166;BME280;36071;48.140;11.516;2023-03-03T16:38:30;95680.0;;;8.7;54.9
50166;BME280;36071;48.140;11.516;2023-03-03T16:43:31;95680.0;;;8.7;55.0
50166;BME280;36071;48.140;11.516;2023-03-03T16:48:32;95690.0;;;8.6;57.6
50166;BME280;36071;48.140;11.516;2023-03-03T16:53:37;95690.0;;;8.6;55.5
50166;BME280;36071;48.140;11.516;2023-03-03T16:58:32;95700.0;;;8.5;55.9
50166;BME280;36071;48.140;11.516;2023-03-03T17:03:34;95700.0;;;8.4;56.3
50166;BME280;36071;48.140;11.516;2023-03-03T17:08:34;95700.0;;;8.3;56.6
50166;BME280;36071;48.140;11.516;2023-03-03T17:13:38;95710.0;;;8.2;56.9
50166;BME280;36071;48.140;11.516;2023-03-03T17:18:34;95700.0;;;8.3;57.3
50166;BME280;36071;48.140;11.516;2023-03-03T17:23:34;95710.0;;;8.1;57.6
50166;BME280;36071;48.140;11.516;2023-03-03T17:28:33;95720.0;;;8.1;57.8
50166;BME280;36071;48.140;11.516;2023-03-03T17:33:33;95720.0;;;7.9;58.3
50166;BME280;36071;48.140;11.516;2023-03-03T17:38:32;95730.0;;;7.9;58.5
50166;BME280;36071;48.140;11.516;2023-03-03T17:43:30;95740.0;;;7.8;58.6
50166;BME280;36071;48.140;11.516;2023-03-03T17:48:33;95750.0;;;7.8;58.7
50166;BME280;36071;48.140;11.516;2023-03-03T17:53:34;95750.0;;;7.7;58.8
50166;BME280;36071;48.140;11.516;2023-03-03T17:58:35;95760.0;;;7.6;59.0
50166;BME280;36071;48.140;11.516;2023-03-03T18:03:54;95760.0;;;7.4;60.2
50166;BME280;36071;48.140;11.516;2023-03-03T18:08:33;95760.0;;;7.3;60.5
50166;BME280;36071;48.140;11.516;2023-03-03T18:13:42;95770.0;;;7.2;60.7
50166;BME280;36071;48.140;11.516;2023-03-03T18:18:34;95780.0;;;7.1;61.4
50166;BME280;36071;48.140;11.516;2023-03-03T18:23:31;95770.0;;;7.0;61.7
50166;BME280;36071;48.140;11.516;2023-03-03T18:28:42;95780.0;;;6.8;62.2
50166;BME280;36071;48.140;11.516;2023-03-03T18:33:40;95780.0;;;6.8;62.1
50166;BME280;36071;48.140;11.516;2023-03-03T18:38:31;95770.0;;;6.7;63.4
50166;BME280;36071;48.140;11.516;2023-03-03T18:43:51;95780.0;;;6.8;62.3
50166;BME280;36071;48.140;11.516;2023-03-03T18:48:45;95780.0;;;6.8;62.8
50166;BME280;36071;48.140;11.516;2023-03-03T18:53:29;95780.0;;;6.6;63.1
50166;BME280;36071;48.140;11.516;2023-03-03T18:58:32;95790.0;;;6.4;64.2
50166;BME280;36071;48.140;11.516;2023-03-03T19:03:31;95790.0;;;6.3;64.6
50166;BME280;36071;48.140;11.516;2023-03-03T19:08:29;95780.0;;;6.3;64.2
50166;BME280;36071;48.140;11.516;2023-03-03T19:13:44;95790.0;;;6.3;64.2
50166;BME280;36071;48.140;11.516;2023-03-03T19:18:29;95800.0;;;6.1;65.1
50166;BME280;36071;48.140;11.516;2023-03-03T19:23:33;95800.0;;;6.1;65.7
50166;BME280;36071;48.140;11.516;2023-03-03T19:28:31;95800.0;;;6.1;64.8
50166;BME280;36071;48.140;11.516;2023-03-03T19:33:32;95800.0;;;5.9;64.6
50166;BME280;36071;48.140;11.516;2023-03-03T19:38:31;95800.0;;;5.9;65.4
50166;BME280;36071;48.140;11.516;2023-03-03T19:43:31;95810.0;;;5.8;65.9
50166;BME280;36071;48.140;11.516;2023-03-03T19:48:32;95810.0;;;5.8;65.5
50166;BME280;36071;48.140;11.516;2023-03-03T19:53:31;95810.0;;;5.6;66.2
50166;BME280;36071;48.140;11.516;2023-03-03T19:58:30;95810.0;;;5.4;66.5
50166;BME280;36071;48.140;11.516;2023-03-03T20:03:35;95820.0;;;5.4;67.1
50166;BME280;36071;48.140;11.516;2023-03-03T20:08:30;95820.0;;;5.3;67.4
50166;BME280;36071;48.140;11.516;2023-03-03T20:13:32;95820.0;;;5.2;68.1
50166;BME280;36071;48.140;11.516;2023-03-03T20:18:50;95830.0;;;5.2;68.6
50166;BME280;36071;48.140;11.516;2023-03-03T20:23:30;95830.0;;;5.1;67.9
50166;BME280;36071;48.140;11.516;2023-03-03T20:28:48;95830.0;;;5.0;68.2
50166;BME280;36071;48.140;11.516;2023-03-03T20:33:34;95830.0;;;4.9;69.6
50166;BME280;36071;48.140;11.516;2023-03-03T20:38:31;95830.0;;;4.9;69.1
50166;BME280;36071;48.140;11.516;2023-03-03T20:43:33;95830.0;;;4.9;69.0
50166;BME280;36071;48.140;11.516;2023-03-03T20:48:33;95840.0;;;4.7;70.3
50166;BME280;36071;48.140;11.516;2023-03-03T20:53:31;95840.0;;;4.4;72.0
50166;BME280;36071;48.140;11.516;2023-03-03T20:58:32;95840.0;;;4.3;72.3
50166;BME280;36071;48.140;11.516;2023-03-03T21:03:30;95840.0;;;4.1;74.0
50166;BME280;36071;48.140;11.516;2023-03-03T21:08:45;95840.0;;;3.9;74.9
50166;BME280;36071;48.140;11.516;2023-03-03T21:13:33;95840.0;;;4.0;74.5
50166;BME280;36071;48.140;11.516;2023-03-03T21:18:29;95840.0;;;4.0;74.1
50166;BME280;36071;48.140;11.516;2023-03-03T21:23:29;95840.0;;;4.0;74.2
50166;BME280;36071;48.140;11.516;2023-03-03T21:28:29;95840.0;;;4.0;73.8
50166;BME280;36071;48.140;11.516;2023-03-03T21:33:45;95850.0;;;4.0;73.7
50166;BME280;36071;48.140;11.516;2023-03-03T21:38:32;95850.0;;;3.9;74.5
50166;BME280;36071;48.140;11.516;2023-03-03T21:43:32;95840.0;;;3.7;75.7
50166;BME280;36071;48.140;11.516;2023-03-03T21:48:29;95850.0;;;3.5;75.8
50166;BME280;36071;48.140;11.516;2023-03-03T21:53:29;95850.0;;;3.5;76.3
50166;BME280;36071;48.140;11.516;2023-03-03T21:58:29;95850.0;;;3.5;76.4
50166;BME280;36071;48.140;11.516;2023-03-03T22:03:29;95850.0;;;3.6;75.9
50166;BME280;36071;48.140;11.516;2023-03-03T22:08:29;95860.0;;;3.5;77.1
50166;BME280;36071;48.140;11.516;2023-03-03T22:13:29;95850.0;;;3.5;75.8
50166;BME280;36071;48.140;11.516;2023-03-03T22:18:29;95850.0;;;3.4;77.3
50166;BME280;36071;48.140;11.516;2023-03-03T22:23:29;95850.0;;;3.2;77.9
50166;BME280;36071;48.140;11.516;2023-03-03T22:28:29;95850.0;;;3.4;77.4
50166;BME280;36071;48.140;11.516;2023-03-03T22:33:29;95860.0;;;3.3;78.1
50166;BME280;36071;48.140;11.516;2023-03-03T22:38:29;95860.0;;;3.3;77.7
50166;BME280;36071;48.140;11.516;2023-03-03T22:43:29;95860.0;;;3.2;78.1
50166;BME280;36071;48.140;11.516;2023-03-03T22:48:34;95860.0;;;3.2;78.5
50166;BME280;36071;48.140;11.516;2023-03-03T22:53:34;95860.0;;;3.1;78.9
50166;BME280;36071;48.140;11.516;2023-03-03T22:58:29;95860.0;;;3.2;78.1
50166;BME280;36071;48.140;11.516;2023-03-03T23:03:29;95860.0;;;3.2;77.9
50166;BME280;36071;48.140;11.516;2023-03-03T23:08:29;95860.0;;;3.1;78.2
50166;BME280;36071;48.140;11.516;2023-03-03T23:13:29;95850.0;;;3.1;78.7
50166;BME280;36071;48.140;11.516;2023-03-03T23:18:29;95850.0;;;3.0;78.8
50166;BME280;36071;48.140;11.516;2023-03-03T23:23:29;95850.0;;;3.0;78.2
50166;BME280;36071;48.140;11.516;2023-03-03T23:28:29;95850.0;;;3.0;78.6
50166;BME280;36071;48.140;11.516;2023-03-03T23:33:29;95850.0;;;3.0;77.9
50166;BME280;36071;48.140;11.516;2023-03-03T23:38:29;95850.0;;;3.1;78.0
50166;BME280;36071;48.140;11.516;2023-03-03T23:43:29;95860.0;;;3.0;78.0
50166;BME280;36071;48.140;11.516;2023-03-03T23:48:29;95850.0;;;2.8;78.2
50166;BME280;36071;48.140;11.516;2023-03-03T23:53:29;95860.0;;;2.7;79.1
50166;BME280;36071;48.140;11.516;2023-03-03T23:58:29;95850.0;;;2.5;81.3
